Ventura — ZCDT2 — position and weather

sailwx.info

Track history (hours):
 
Tides and Currents Weather Stations Pressure Air Temp Water Temp Dewpoint Dewpoint Depression Visibility Wind Speed Wind Dir Waves Ship Positions

Ventura

Last reported at 2020-Apr-02 21:30 UTC. Time now 2020-Apr-02 22:00 UTC.
Position N 50°12' W 002°17'.

Length 289 m; draft 8.6 m.

Type: Passenger vessel. MMSI: 310562000.

Date/timePositionNaut miles runAvg speedWind from/ knotsBaromVisibWave heightAir tempDewpointWater temp
2020-Apr-02 21:30N 50°12' W 002°17'611.6
2020-Apr-02 21:00N 50°12' W 002°08'2411.6
2020-Apr-02 18:55N 50°17' W 001°31'711.4
2020-Apr-02 18:19N 50°19' W 001°21'25 8.9
2020-Apr-02 15:30N 50°39' W 000°58'2110.5
2020-Apr-02 13:30N 50°53' W 001°24'2 1.4
2020-Apr-02 11:59N 50°54' W 001°26'0 0.0
2020-Apr-02 10:59N 50°54' W 001°26'0 0.0
2020-Apr-02 10:29N 50°54' W 001°26'0 0.0
2020-Apr-02 09:29N 50°54' W 001°26'0 0.0
2020-Apr-02 07:59N 50°54' W 001°26'0 0.0
2020-Apr-02 07:29N 50°54' W 001°26'0 0.0
2020-Apr-02 05:29N 50°54' W 001°26'0 0.0
2020-Apr-02 02:29N 50°54' W 001°26'0 0.0
2020-Apr-02 01:56N 50°54' W 001°26'0 0.0
2020-Apr-01 22:59N 50°54' W 001°26'0 0.0
2020-Apr-01 22:26N 50°54' W 001°26'0 0.0
2020-Apr-01 21:29N 50°54' W 001°26'0 0.0
2020-Apr-01 20:59N 50°54' W 001°26'0 0.0
2020-Apr-01 18:29N 50°54' W 001°26'0 0.0
2020-Apr-01 17:59N 50°54' W 001°26'0 0.0
2020-Apr-01 16:59N 50°54' W 001°26'0 0.0
2020-Apr-01 16:29N 50°54' W 001°26'0 0.0
2020-Apr-01 10:29N 50°54' W 001°26'0 0.0
2020-Apr-01 07:59N 50°54' W 001°26'0 0.0
2020-Apr-01 07:26N 50°54' W 001°26'0 0.0
2020-Mar-31 21:59N 50°54' W 001°26'0 0.0
2020-Mar-31 20:59N 50°54' W 001°26'0 0.0
2020-Mar-31 20:29N 50°54' W 001°26'0 0.0
2020-Mar-31 17:56N 50°54' W 001°26'0 0.0
2020-Mar-31 16:29N 50°54' W 001°26'0 0.0
2020-Mar-31 15:59N 50°54' W 001°26'0 0.0
2020-Mar-31 11:29N 50°54' W 001°26'0 0.0
2020-Mar-31 10:59N 50°54' W 001°26'0 0.0
2020-Mar-31 09:59N 50°54' W 001°26'0 0.0
2020-Mar-31 09:29N 50°54' W 001°26'0 0.0
2020-Mar-31 08:29N 50°54' W 001°26'0 0.0
2020-Mar-31 07:29N 50°54' W 001°26'0 0.0
2020-Mar-31 06:29N 50°54' W 001°26'0 0.0
2020-Mar-31 04:59N 50°54' W 001°26'0 0.0
2020-Mar-31 04:29N 50°54' W 001°26'0 0.0
2020-Mar-31 03:29N 50°54' W 001°26'0 0.0
2020-Mar-31 00:59N 50°54' W 001°26'0 0.0
2020-Mar-30 23:26N 50°54' W 001°26'0 0.0
2020-Mar-30 21:29N 50°54' W 001°26'0 0.0
2020-Mar-30 20:59N 50°54' W 001°26'0 0.0
2020-Mar-30 17:29N 50°54' W 001°26'0 0.0
2020-Mar-30 16:26N 50°54' W 001°26'0 0.0
2020-Mar-30 14:29N 50°54' W 001°26'0 0.0
2020-Mar-30 13:59N 50°54' W 001°26'0 0.0
2020-Mar-30 11:56N 50°54' W 001°26'0 0.0
2020-Mar-30 10:29N 50°54' W 001°26'0 0.1
2020-Mar-30 08:30N 50°54' W 001°26'2 3.1
2020-Mar-30 08:00N 50°53' W 001°24'2110.4
2020-Mar-30 06:00N 50°41' W 000°58'3 6.5
2020-Mar-30 05:30N 50°38' W 000°58'9 9.3
2020-Mar-30 04:30N 50°31' W 001°09'2911.5
2020-Mar-30 02:00N 50°21' W 001°51'611.4
2020-Mar-30 01:30N 50°19' W 001°60'3210.5
2020-Mar-29 22:30N 50°21' W 002°49'1010.1
2020-Mar-29 21:30N 50°23' W 003°05'8 8.4
2020-Mar-29 20:30N 50°19' W 003°16'7 6.6
2020-Mar-29 19:30N 50°13' W 003°14'510.3
2020-Mar-29 19:00N 50°13' W 003°06'1110.9
2020-Mar-29 18:00N 50°13' W 002°49'611.9
2020-Mar-29 17:30N 50°13' W 002°39'1312.7
2020-Mar-29 16:30N 50°13' W 002°19'2612.9
2020-Mar-29 14:30N 50°15' W 001°39'2311.4
2020-Mar-29 12:28N 50°21' W 001°04'11 7.5
2020-Mar-29 11:03N 50°30' W 000°55'2110.4
2020-Mar-29 09:00N 50°47' W 001°17'9 1.7
2020-Mar-29 03:19N 50°54' W 001°26'0 0.0
2020-Mar-29 02:28N 50°54' W 001°26'0 0.0
2020-Mar-28 23:52N 50°54' W 001°26'0 0.0
2020-Mar-28 23:25N 50°54' W 001°26'0 0.0
2020-Mar-28 20:58N 50°54' W 001°26'0 0.0
2020-Mar-28 19:22N 50°54' W 001°26'0 0.0
2020-Mar-28 15:25N 50°54' W 001°26'0 0.0
2020-Mar-28 12:28N 50°54' W 001°26'0 0.0
2020-Mar-28 11:52N 50°54' W 001°26'0 0.0
2020-Mar-28 11:28N 50°54' W 001°26'0 0.0
2020-Mar-28 08:28N 50°54' W 001°26'0 0.0
2020-Mar-28 06:28N 50°54' W 001°26'0 0.0
2020-Mar-28 05:58N 50°54' W 001°26'0 0.0
2020-Mar-28 02:58N 50°54' W 001°26'0 0.0
2020-Mar-28 02:28N 50°54' W 001°26'0 0.0
2020-Mar-28 01:58N 50°54' W 001°26'0 0.0
2020-Mar-28 00:58N 50°54' W 001°26'0 0.0
2020-Mar-27 22:28N 50°54' W 001°26'0 0.0
2020-Mar-27 21:28N 50°54' W 001°26'0 0.0
2020-Mar-27 16:49N 50°54' W 001°26'0 0.0
2020-Mar-27 16:28N 50°54' W 001°26'0 0.0
2020-Mar-27 15:58N 50°54' W 001°26'0 0.0
2020-Mar-27 14:58N 50°54' W 001°26'0 0.0
2020-Mar-27 13:28N 50°54' W 001°26'0 0.0
2020-Mar-27 12:28N 50°54' W 001°26'0 0.0
2020-Mar-27 11:58N 50°54' W 001°26'0 0.0
2020-Mar-27 10:25N 50°54' W 001°26'0 0.0
2020-Mar-27 09:58N 50°54' W 001°26'0 0.0
2020-Mar-27 07:58N 50°54' W 001°26'0 0.0
2020-Mar-27 05:55N 50°54' W 001°26'0 0.0
2020-Mar-27 03:28N 50°54' W 001°26'0 0.0
2020-Mar-26 21:28N 50°54' W 001°26'0 0.0
2020-Mar-26 20:58N 50°54' W 001°26'0 0.0
2020-Mar-26 17:52N 50°54' W 001°26'0 0.0
2020-Mar-26 17:10N 50°54' W 001°26'0 0.0
2020-Mar-26 14:58N 50°54' W 001°26'0 0.0
2020-Mar-26 13:28N 50°54' W 001°26'0 0.0
2020-Mar-26 10:58N 50°54' W 001°26'0 0.0
2020-Mar-26 09:58N 50°54' W 001°26'0 0.0
2020-Mar-26 09:25N 50°54' W 001°26'0 0.0
2020-Mar-26 07:58N 50°54' W 001°26'0 0.0
2020-Mar-26 07:28N 50°54' W 001°26'0 0.0
2020-Mar-26 06:55N 50°54' W 001°26'0 0.0
2020-Mar-26 06:28N 50°54' W 001°26'0 0.0
2020-Mar-26 05:55N 50°54' W 001°26'0 0.0
2020-Mar-26 05:28N 50°54' W 001°26'0 0.0
2020-Mar-26 04:28N 50°54' W 001°26'0 0.0
2020-Mar-26 03:28N 50°54' W 001°26'0 0.0
2020-Mar-25 22:58N 50°54' W 001°26'0 0.0
2020-Mar-25 20:28N 50°54' W 001°26'0 0.0
2020-Mar-25 15:28N 50°54' W 001°26'0 0.0
2020-Mar-25 13:28N 50°54' W 001°26'0 0.0
2020-Mar-25 12:52N 50°54' W 001°26'0 0.0
2020-Mar-25 10:28N 50°54' W 001°26'0 0.0
2020-Mar-25 08:28N 50°54' W 001°26'0 0.0
2020-Mar-25 07:58N 50°54' W 001°26'0 0.0
2020-Mar-25 05:28N 50°54' W 001°26'0 0.0
2020-Mar-25 01:28N 50°54' W 001°26'0 0.0
2020-Mar-25 00:58N 50°54' W 001°26'0 0.0
2020-Mar-25 00:28N 50°54' W 001°26'0 0.0
2020-Mar-24 22:58N 50°54' W 001°26'0 0.0
2020-Mar-24 21:25N 50°54' W 001°26'0 0.0
2020-Mar-24 19:58N 50°54' W 001°26'0 0.0
2020-Mar-24 19:28N 50°54' W 001°26'0 0.0
2020-Mar-24 18:58N 50°54' W 001°26'0 0.0
2020-Mar-24 17:28N 50°54' W 001°26'0 0.0
2020-Mar-24 16:58N 50°54' W 001°26'0 0.0
2020-Mar-24 15:28N 50°54' W 001°26'0 0.0
2020-Mar-24 13:58N 50°54' W 001°26'0 0.0
2020-Mar-24 13:28N 50°54' W 001°26'0 0.0
2020-Mar-24 12:58N 50°54' W 001°26'0 0.0
2020-Mar-24 09:58N 50°54' W 001°26'0 0.0
2020-Mar-24 08:28N 50°54' W 001°26'0 0.0
2020-Mar-24 07:55N 50°54' W 001°26'0 0.0
2020-Mar-24 07:25N 50°54' W 001°26'0 0.0
2020-Mar-24 05:28N 50°54' W 001°26'0 0.0
2020-Mar-24 04:28N 50°54' W 001°26'0 0.0
2020-Mar-24 01:28N 50°54' W 001°26'0 0.0
2020-Mar-24 00:28N 50°54' W 001°26'0 0.0
2020-Mar-23 23:28N 50°54' W 001°26'  
Track history (hours):
 
Tides and Currents Weather Stations Pressure Air Temp Water Temp Dewpoint Dewpoint Depression Visibility Wind Speed Wind Dir Waves Ship Positions

Ventura

Last reported at 2020-Apr-02 21:30 UTC. Time now 2020-Apr-02 22:00 UTC.
Position N 50°12' W 002°17'.

Length 289 m; draft 8.6 m.

Type: Passenger vessel. MMSI: 310562000.

Date/timePositionNaut miles runAvg speedWind from/ knotsBaromVisibWave heightAir tempDewpointWater temp
2020-Apr-02 21:30N 50°12' W 002°17'611.6
2020-Apr-02 21:00N 50°12' W 002°08'2411.6
2020-Apr-02 18:55N 50°17' W 001°31'711.4
2020-Apr-02 18:19N 50°19' W 001°21'25 8.9
2020-Apr-02 15:30N 50°39' W 000°58'2110.5
2020-Apr-02 13:30N 50°53' W 001°24'2 1.4
2020-Apr-02 11:59N 50°54' W 001°26'0 0.0
2020-Apr-02 10:59N 50°54' W 001°26'0 0.0
2020-Apr-02 10:29N 50°54' W 001°26'0 0.0
2020-Apr-02 09:29N 50°54' W 001°26'0 0.0
2020-Apr-02 07:59N 50°54' W 001°26'0 0.0
2020-Apr-02 07:29N 50°54' W 001°26'0 0.0
2020-Apr-02 05:29N 50°54' W 001°26'0 0.0
2020-Apr-02 02:29N 50°54' W 001°26'0 0.0
2020-Apr-02 01:56N 50°54' W 001°26'0 0.0
2020-Apr-01 22:59N 50°54' W 001°26'0 0.0
2020-Apr-01 22:26N 50°54' W 001°26'0 0.0
2020-Apr-01 21:29N 50°54' W 001°26'0 0.0
2020-Apr-01 20:59N 50°54' W 001°26'0 0.0
2020-Apr-01 18:29N 50°54' W 001°26'0 0.0
2020-Apr-01 17:59N 50°54' W 001°26'0 0.0
2020-Apr-01 16:59N 50°54' W 001°26'0 0.0
2020-Apr-01 16:29N 50°54' W 001°26'0 0.0
2020-Apr-01 10:29N 50°54' W 001°26'0 0.0
2020-Apr-01 07:59N 50°54' W 001°26'0 0.0
2020-Apr-01 07:26N 50°54' W 001°26'0 0.0
2020-Mar-31 21:59N 50°54' W 001°26'0 0.0
2020-Mar-31 20:59N 50°54' W 001°26'0 0.0
2020-Mar-31 20:29N 50°54' W 001°26'0 0.0
2020-Mar-31 17:56N 50°54' W 001°26'0 0.0
2020-Mar-31 16:29N 50°54' W 001°26'0 0.0
2020-Mar-31 15:59N 50°54' W 001°26'0 0.0
2020-Mar-31 11:29N 50°54' W 001°26'0 0.0
2020-Mar-31 10:59N 50°54' W 001°26'0 0.0
2020-Mar-31 09:59N 50°54' W 001°26'0 0.0
2020-Mar-31 09:29N 50°54' W 001°26'0 0.0
2020-Mar-31 08:29N 50°54' W 001°26'0 0.0
2020-Mar-31 07:29N 50°54' W 001°26'0 0.0
2020-Mar-31 06:29N 50°54' W 001°26'0 0.0
2020-Mar-31 04:59N 50°54' W 001°26'0 0.0
2020-Mar-31 04:29N 50°54' W 001°26'0 0.0
2020-Mar-31 03:29N 50°54' W 001°26'0 0.0
2020-Mar-31 00:59N 50°54' W 001°26'0 0.0
2020-Mar-30 23:26N 50°54' W 001°26'0 0.0
2020-Mar-30 21:29N 50°54' W 001°26'0 0.0
2020-Mar-30 20:59N 50°54' W 001°26'0 0.0
2020-Mar-30 17:29N 50°54' W 001°26'0 0.0
2020-Mar-30 16:26N 50°54' W 001°26'0 0.0
2020-Mar-30 14:29N 50°54' W 001°26'0 0.0
2020-Mar-30 13:59N 50°54' W 001°26'0 0.0
2020-Mar-30 11:56N 50°54' W 001°26'0 0.0
2020-Mar-30 10:29N 50°54' W 001°26'0 0.1
2020-Mar-30 08:30N 50°54' W 001°26'2 3.1
2020-Mar-30 08:00N 50°53' W 001°24'2110.4
2020-Mar-30 06:00N 50°41' W 000°58'3 6.5
2020-Mar-30 05:30N 50°38' W 000°58'9 9.3
2020-Mar-30 04:30N 50°31' W 001°09'2911.5
2020-Mar-30 02:00N 50°21' W 001°51'611.4
2020-Mar-30 01:30N 50°19' W 001°60'3210.5
2020-Mar-29 22:30N 50°21' W 002°49'1010.1
2020-Mar-29 21:30N 50°23' W 003°05'8 8.4
2020-Mar-29 20:30N 50°19' W 003°16'7 6.6
2020-Mar-29 19:30N 50°13' W 003°14'510.3
2020-Mar-29 19:00N 50°13' W 003°06'1110.9
2020-Mar-29 18:00N 50°13' W 002°49'611.9
2020-Mar-29 17:30N 50°13' W 002°39'1312.7
2020-Mar-29 16:30N 50°13' W 002°19'2612.9
2020-Mar-29 14:30N 50°15' W 001°39'2311.4
2020-Mar-29 12:28N 50°21' W 001°04'11 7.5
2020-Mar-29 11:03N 50°30' W 000°55'2110.4
2020-Mar-29 09:00N 50°47' W 001°17'9 1.7
2020-Mar-29 03:19N 50°54' W 001°26'0 0.0
2020-Mar-29 02:28N 50°54' W 001°26'0 0.0
2020-Mar-28 23:52N 50°54' W 001°26'0 0.0
2020-Mar-28 23:25N 50°54' W 001°26'0 0.0
2020-Mar-28 20:58N 50°54' W 001°26'0 0.0
2020-Mar-28 19:22N 50°54' W 001°26'0 0.0
2020-Mar-28 15:25N 50°54' W 001°26'0 0.0
2020-Mar-28 12:28N 50°54' W 001°26'0 0.0
2020-Mar-28 11:52N 50°54' W 001°26'0 0.0
2020-Mar-28 11:28N 50°54' W 001°26'0 0.0
2020-Mar-28 08:28N 50°54' W 001°26'0 0.0
2020-Mar-28 06:28N 50°54' W 001°26'0 0.0
2020-Mar-28 05:58N 50°54' W 001°26'0 0.0
2020-Mar-28 02:58N 50°54' W 001°26'0 0.0
2020-Mar-28 02:28N 50°54' W 001°26'0 0.0
2020-Mar-28 01:58N 50°54' W 001°26'0 0.0
2020-Mar-28 00:58N 50°54' W 001°26'0 0.0
2020-Mar-27 22:28N 50°54' W 001°26'0 0.0
2020-Mar-27 21:28N 50°54' W 001°26'0 0.0
2020-Mar-27 16:49N 50°54' W 001°26'0 0.0
2020-Mar-27 16:28N 50°54' W 001°26'0 0.0
2020-Mar-27 15:58N 50°54' W 001°26'0 0.0
2020-Mar-27 14:58N 50°54' W 001°26'0 0.0
2020-Mar-27 13:28N 50°54' W 001°26'0 0.0
2020-Mar-27 12:28N 50°54' W 001°26'0 0.0
2020-Mar-27 11:58N 50°54' W 001°26'0 0.0
2020-Mar-27 10:25N 50°54' W 001°26'0 0.0
2020-Mar-27 09:58N 50°54' W 001°26'0 0.0
2020-Mar-27 07:58N 50°54' W 001°26'0 0.0
2020-Mar-27 05:55N 50°54' W 001°26'0 0.0
2020-Mar-27 03:28N 50°54' W 001°26'0 0.0
2020-Mar-26 21:28N 50°54' W 001°26'0 0.0
2020-Mar-26 20:58N 50°54' W 001°26'0 0.0
2020-Mar-26 17:52N 50°54' W 001°26'0 0.0
2020-Mar-26 17:10N 50°54' W 001°26'0 0.0
2020-Mar-26 14:58N 50°54' W 001°26'0 0.0
2020-Mar-26 13:28N 50°54' W 001°26'0 0.0
2020-Mar-26 10:58N 50°54' W 001°26'0 0.0
2020-Mar-26 09:58N 50°54' W 001°26'0 0.0
2020-Mar-26 09:25N 50°54' W 001°26'0 0.0
2020-Mar-26 07:58N 50°54' W 001°26'0 0.0
2020-Mar-26 07:28N 50°54' W 001°26'0 0.0
2020-Mar-26 06:55N 50°54' W 001°26'0 0.0
2020-Mar-26 06:28N 50°54' W 001°26'0 0.0
2020-Mar-26 05:55N 50°54' W 001°26'0 0.0
2020-Mar-26 05:28N 50°54' W 001°26'0 0.0
2020-Mar-26 04:28N 50°54' W 001°26'0 0.0
2020-Mar-26 03:28N 50°54' W 001°26'0 0.0
2020-Mar-25 22:58N 50°54' W 001°26'0 0.0
2020-Mar-25 20:28N 50°54' W 001°26'0 0.0
2020-Mar-25 15:28N 50°54' W 001°26'0 0.0
2020-Mar-25 13:28N 50°54' W 001°26'0 0.0
2020-Mar-25 12:52N 50°54' W 001°26'0 0.0
2020-Mar-25 10:28N 50°54' W 001°26'0 0.0
2020-Mar-25 08:28N 50°54' W 001°26'0 0.0
2020-Mar-25 07:58N 50°54' W 001°26'0 0.0
2020-Mar-25 05:28N 50°54' W 001°26'0 0.0
2020-Mar-25 01:28N 50°54' W 001°26'0 0.0
2020-Mar-25 00:58N 50°54' W 001°26'0 0.0
2020-Mar-25 00:28N 50°54' W 001°26'0 0.0
2020-Mar-24 22:58N 50°54' W 001°26'0 0.0
2020-Mar-24 21:25N 50°54' W 001°26'0 0.0
2020-Mar-24 19:58N 50°54' W 001°26'0 0.0
2020-Mar-24 19:28N 50°54' W 001°26'0 0.0
2020-Mar-24 18:58N 50°54' W 001°26'0 0.0
2020-Mar-24 17:28N 50°54' W 001°26'0 0.0
2020-Mar-24 16:58N 50°54' W 001°26'0 0.0
2020-Mar-24 15:28N 50°54' W 001°26'0 0.0
2020-Mar-24 13:58N 50°54' W 001°26'0 0.0
2020-Mar-24 13:28N 50°54' W 001°26'0 0.0
2020-Mar-24 12:58N 50°54' W 001°26'0 0.0
2020-Mar-24 09:58N 50°54' W 001°26'0 0.0
2020-Mar-24 08:28N 50°54' W 001°26'0 0.0
2020-Mar-24 07:55N 50°54' W 001°26'0 0.0
2020-Mar-24 07:25N 50°54' W 001°26'0 0.0
2020-Mar-24 05:28N 50°54' W 001°26'0 0.0
2020-Mar-24 04:28N 50°54' W 001°26'0 0.0
2020-Mar-24 01:28N 50°54' W 001°26'0 0.0
2020-Mar-24 00:28N 50°54' W 001°26'0 0.0
2020-Mar-23 23:28N 50°54' W 001°26'  

Dump ship's entire track history